Time;durP1;ratioP1;P1;durP2;ratioP2;P2;SDS_P1;SDS_P2;PMS_P1;PMS_P2;Temp;Humidity;BMP_temperature;BMP_pressure;BME280_temperature;BME280_humidity;BME280_pressure;Samples;Min_cycle;Max_cycle;Signal;HPM_P1;HPM_P2
2023/06/27 00:01:35;;;;;;;8.48;4.88;;;14.80;99.90;;;;;;5017444;28;20053;-63
2023/06/27 00:04:01;;;;;;;12.55;5.18;;;14.80;99.90;;;;;;5051775;28;20049;-63
2023/06/27 00:06:27;;;;;;;9.30;4.63;;;14.70;99.90;;;;;;5051050;28;20033;-63
2023/06/27 00:08:52;;;;;;;7.43;4.65;;;14.70;99.90;;;;;;5033983;28;20116;-63
2023/06/27 00:11:18;;;;;;;10.63;5.28;;;14.70;99.90;;;;;;5033743;28;20086;-63
2023/06/27 00:13:44;;;;;;;9.88;4.85;;;14.70;99.90;;;;;;5050889;28;20067;-62
2023/06/27 00:16:15;;;;;;;8.30;4.50;;;14.70;99.90;;;;;;5034027;28;20394;-63
2023/06/27 00:18:47;;;;;;;9.43;4.53;;;14.70;99.90;;;;;;5050710;28;20119;-63
2023/06/27 00:21:15;;;;;;;8.85;4.55;;;14.60;99.90;;;;;;5016582;28;20493;-63
2023/06/27 00:23:42;;;;;;;9.15;5.13;;;14.60;99.90;;;;;;5033766;28;20539;-63
2023/06/27 00:26:09;;;;;;;7.75;4.50;;;14.60;99.90;;;;;;5051731;28;20504;-62
2023/06/27 00:28:35;;;;;;;8.45;5.18;;;14.60;99.90;;;;;;5032909;28;20049;-64
2023/06/27 00:31:01;;;;;;;7.63;4.32;;;14.50;99.90;;;;;;5051450;28;20059;-63
2023/06/27 00:33:27;;;;;;;10.15;5.30;;;14.50;99.90;;;;;;5051692;28;20048;-63
2023/06/27 00:35:53;;;;;;;7.47;4.28;;;14.50;99.90;;;;;;5032864;28;20048;-63
2023/06/27 00:38:18;;;;;;;7.50;4.72;;;14.60;99.90;;;;;;5033712;28;20049;-63
2023/06/27 00:40:44;;;;;;;10.23;5.15;;;14.50;99.90;;;;;;5032832;28;20041;-63
2023/06/27 00:43:10;;;;;;;9.40;5.10;;;14.50;99.90;;;;;;5033877;28;20102;-63
2023/06/27 00:45:36;;;;;;;10.52;4.93;;;14.50;99.90;;;;;;5033728;28;20423;-63
2023/06/27 00:48:02;;;;;;;7.05;4.32;;;14.50;99.90;;;;;;5032772;28;20052;-62
2023/06/27 00:50:30;;;;;;;10.48;4.88;;;14.50;99.90;;;;;;5051330;28;20045;-62
2023/06/27 00:52:58;;;;;;;9.77;4.32;;;14.50;99.90;;;;;;5017100;28;20474;-62
2023/06/27 00:55:24;;;;;;;9.65;5.05;;;14.50;99.90;;;;;;5016233;28;20045;-63
2023/06/27 00:57:50;;;;;;;8.98;4.75;;;14.50;99.90;;;;;;5053329;28;20489;-62
2023/06/27 01:00:16;;;;;;;7.50;4.40;;;14.50;99.90;;;;;;5037035;28;20067;-63
2023/06/27 01:02:45;;;;;;;9.90;4.90;;;14.50;99.90;;;;;;5054168;28;20033;-63
2023/06/27 01:05:12;;;;;;;7.80;3.92;;;14.50;99.90;;;;;;5037411;28;20053;-63
2023/06/27 01:07:40;;;;;;;9.15;4.50;;;14.40;99.90;;;;;;5037146;28;20052;-63
2023/06/27 01:10:30;;;;;;;7.85;3.58;;;14.40;99.90;;;;;;5054092;28;20045;-63
2023/06/27 01:13:16;;;;;;;8.27;4.07;;;14.40;99.90;;;;;;5049983;28;20177;-63
2023/06/27 01:15:42;;;;;;;11.20;4.15;;;14.40;99.90;;;;;;5073283;28;20056;-63
2023/06/27 01:18:13;;;;;;;7.15;4.35;;;14.40;99.90;;;;;;5074204;28;20428;-63
2023/06/27 01:20:43;;;;;;;10.05;4.45;;;14.40;99.90;;;;;;5056725;28;20052;-63
2023/06/27 01:23:24;;;;;;;8.35;3.97;;;14.40;99.90;;;;;;5074118;28;20036;-63
2023/06/27 01:26:09;;;;;;;6.93;3.45;;;14.40;99.90;;;;;;5056784;28;20043;-63
2023/06/27 01:28:36;;;;;;;9.02;3.78;;;14.40;99.90;;;;;;5056761;28;20033;-63
2023/06/27 01:31:03;;;;;;;6.28;3.50;;;14.40;99.90;;;;;;5073355;28;20068;-62
2023/06/27 01:33:40;;;;;;;6.43;3.30;;;14.40;99.90;;;;;;5074177;28;20040;-63
2023/06/27 01:36:15;;;;;;;6.22;3.55;;;14.40;99.90;;;;;;5074545;28;20048;-63
2023/06/27 01:38:58;;;;;;;6.05;3.60;;;14.30;99.90;;;;;;5055582;28;20497;-63
2023/06/27 01:41:27;;;;;;;8.25;3.70;;;14.30;99.90;;;;;;5073998;28;20049;-63
2023/06/27 01:43:54;;;;;;;7.63;4.03;;;14.30;99.90;;;;;;5056500;28;20071;-63
2023/06/27 01:46:22;;;;;;;7.93;3.33;;;14.30;99.90;;;;;;5055388;28;20040;-63
2023/06/27 01:48:49;;;;;;;7.28;3.53;;;14.30;99.90;;;;;;5074173;28;20040;-63
2023/06/27 01:51:15;;;;;;;6.28;3.17;;;14.30;99.90;;;;;;5072893;28;20081;-63
2023/06/27 01:53:41;;;;;;;7.43;3.53;;;14.20;99.90;;;;;;5039589;28;20045;-63
2023/06/27 01:56:08;;;;;;;6.85;2.88;;;14.20;99.90;;;;;;5056372;28;20040;-62
2023/06/27 01:58:34;;;;;;;11.88;3.88;;;14.20;99.90;;;;;;5055050;28;20044;-63
2023/06/27 02:01:00;;;;;;;6.88;3.13;;;14.20;99.90;;;;;;5055781;28;20041;-63
2023/06/27 02:03:26;;;;;;;6.72;3.35;;;14.30;99.90;;;;;;5048394;28;20052;-63
2023/06/27 02:05:51;;;;;;;6.72;3.00;;;14.30;99.90;;;;;;5035330;28;20037;-63
2023/06/27 02:08:17;;;;;;;7.55;3.22;;;14.30;99.90;;;;;;5035514;28;20037;-63
2023/06/27 02:10:43;;;;;;;7.07;3.20;;;14.30;99.90;;;;;;5053930;28;20074;-63
2023/06/27 02:13:08;;;;;;;6.43;3.05;;;14.30;99.90;;;;;;5052876;28;20037;-63
2023/06/27 02:15:34;;;;;;;5.78;3.08;;;14.30;99.90;;;;;;5035863;28;20045;-63
2023/06/27 02:18:02;;;;;;;6.32;3.45;;;14.20;99.90;;;;;;5053633;28;20076;-63
2023/06/27 02:20:28;;;;;;;6.97;3.30;;;14.20;99.90;;;;;;5052709;28;20049;-63
2023/06/27 02:22:54;;;;;;;7.70;2.85;;;14.20;99.90;;;;;;5053429;28;20067;-63
2023/06/27 02:25:20;;;;;;;6.55;2.88;;;14.20;99.90;;;;;;5053636;28;20037;-63
2023/06/27 02:27:45;;;;;;;5.35;2.70;;;14.20;99.90;;;;;;5052599;28;20040;-63
2023/06/27 02:30:11;;;;;;;7.90;2.90;;;14.20;99.90;;;;;;5053765;28;20053;-63
2023/06/27 02:32:37;;;;;;;7.95;3.53;;;14.20;99.90;;;;;;5027982;28;20402;-63
2023/06/27 02:35:03;;;;;;;7.22;3.28;;;14.20;99.90;;;;;;5068861;28;20045;-63
2023/06/27 02:37:28;;;;;;;9.98;3.88;;;14.30;99.90;;;;;;5055299;28;20537;-63
2023/06/27 02:39:56;;;;;;;5.57;2.47;;;14.20;99.90;;;;;;5073250;28;20045;-63
2023/06/27 02:42:22;;;;;;;5.30;2.38;;;14.30;99.90;;;;;;5072403;28;20107;-62
2023/06/27 02:44:48;;;;;;;8.00;2.78;;;14.20;99.90;;;;;;5073160;28;20512;-63
2023/06/27 02:47:15;;;;;;;5.38;2.60;;;14.20;99.90;;;;;;5055092;28;20055;-63
2023/06/27 02:49:42;;;;;;;6.80;2.30;;;14.20;99.90;;;;;;5035810;28;20099;-63
2023/06/27 02:52:08;;;;;;;6.15;2.72;;;14.30;99.90;;;;;;5052894;28;20474;-63
2023/06/27 02:54:34;;;;;;;6.10;2.28;;;14.30;99.90;;;;;;5034483;28;20053;-63
2023/06/27 02:57:00;;;;;;;6.60;2.80;;;14.30;99.90;;;;;;5035220;28;20450;-63
2023/06/27 02:59:25;;;;;;;6.15;2.42;;;14.30;99.90;;;;;;5035160;28;20470;-63
2023/06/27 03:01:51;;;;;;;8.27;2.92;;;14.30;99.90;;;;;;5034242;28;20037;-63
2023/06/27 03:04:21;;;;;;;6.75;2.67;;;14.30;99.90;;;;;;5052614;28;20068;-63
2023/06/27 03:06:47;;;;;;;7.78;2.33;;;14.30;99.90;;;;;;5052477;28;20108;-63
2023/06/27 03:09:13;;;;;;;9.20;2.22;;;14.30;99.90;;;;;;5033908;28;20128;-63
2023/06/27 03:11:38;;;;;;;5.28;2.33;;;14.20;99.90;;;;;;5035012;28;20116;-63
2023/06/27 03:14:04;;;;;;;8.02;3.08;;;14.20;99.90;;;;;;5052765;28;20041;-63
2023/06/27 03:16:30;;;;;;;7.57;2.40;;;14.20;99.90;;;;;;5051608;28;20037;-63
2023/06/27 03:18:55;;;;;;;5.57;2.72;;;14.20;99.90;;;;;;5034341;28;20036;-63
2023/06/27 03:21:21;;;;;;;6.85;2.53;;;14.30;99.90;;;;;;5017520;28;20102;-63
2023/06/27 03:23:47;;;;;;;4.55;2.20;;;14.20;99.90;;;;;;5033975;28;20056;-63
2023/06/27 03:26:12;;;;;;;6.95;2.55;;;14.20;99.90;;;;;;5034577;28;20485;-63
2023/06/27 03:28:40;;;;;;;4.97;2.50;;;14.20;99.90;;;;;;5052494;28;20040;-63
2023/06/27 03:31:06;;;;;;;6.53;2.53;;;14.20;99.90;;;;;;5033682;28;20053;-63
2023/06/27 03:33:31;;;;;;;7.10;2.45;;;14.20;99.90;;;;;;5052146;28;20131;-63
2023/06/27 03:35:57;;;;;;;6.07;2.28;;;14.20;99.90;;;;;;5034855;28;20130;-63
2023/06/27 03:38:23;;;;;;;5.72;1.80;;;14.30;99.90;;;;;;5033532;28;20473;-63
2023/06/27 03:40:49;;;;;;;5.95;2.40;;;14.20;99.90;;;;;;5052202;28;20041;-63
2023/06/27 03:43:15;;;;;;;5.07;2.10;;;14.30;99.90;;;;;;5052182;28;20430;-63
2023/06/27 03:45:41;;;;;;;6.32;2.03;;;14.30;99.90;;;;;;5051206;28;20501;-63
2023/06/27 03:48:07;;;;;;;8.07;2.60;;;14.30;99.90;;;;;;5034471;28;20044;-63
2023/06/27 03:50:33;;;;;;;6.72;2.30;;;14.30;99.90;;;;;;5052167;28;20045;-63
2023/06/27 03:53:02;;;;;;;6.35;2.78;;;14.30;99.90;;;;;;5016964;28;20056;-63
2023/06/27 03:55:28;;;;;;;8.25;2.47;;;14.30;99.90;;;;;;5034041;28;20474;-63
2023/06/27 03:57:54;;;;;;;9.93;2.83;;;14.30;99.90;;;;;;5016743;28;20047;-63
2023/06/27 04:00:20;;;;;;;7.10;3.10;;;14.40;99.90;;;;;;5051740;28;20386;-63
2023/06/27 04:02:45;;;;;;;6.93;2.65;;;14.40;99.90;;;;;;5034039;28;20028;-63
2023/06/27 04:05:11;;;;;;;6.63;2.28;;;14.50;99.90;;;;;;5051414;28;20041;-63
2023/06/27 04:07:37;;;;;;;8.75;2.83;;;14.50;99.90;;;;;;5052090;28;20041;-63
2023/06/27 04:10:02;;;;;;;9.85;2.80;;;14.50;99.90;;;;;;5034040;28;20487;-63
2023/06/27 04:12:28;;;;;;;6.25;2.88;;;14.60;99.90;;;;;;5033200;28;20068;-63
2023/06/27 04:14:54;;;;;;;16.58;2.97;;;14.60;99.90;;;;;;5051879;28;20516;-63
2023/06/27 04:17:20;;;;;;;6.82;2.40;;;14.70;99.90;;;;;;5051584;28;20123;-63
2023/06/27 04:19:45;;;;;;;7.93;3.03;;;14.70;99.90;;;;;;5032823;28;20047;-63
2023/06/27 04:22:11;;;;;;;6.95;2.75;;;14.80;99.90;;;;;;5052147;28;20048;-63
2023/06/27 04:24:36;;;;;;;6.95;2.25;;;14.80;99.90;;;;;;5051899;28;20037;-63
2023/06/27 04:27:02;;;;;;;6.70;2.65;;;14.80;99.90;;;;;;5042894;28;20126;-63
2023/06/27 04:29:28;;;;;;;7.53;2.20;;;14.80;99.90;;;;;;5033602;28;20128;-63
2023/06/27 04:31:54;;;;;;;8.30;2.85;;;14.90;99.90;;;;;;5035928;28;20055;-63
2023/06/27 04:34:19;;;;;;;5.65;2.15;;;14.90;99.90;;;;;;5054761;28;20119;-63
2023/06/27 04:36:45;;;;;;;7.90;2.17;;;15.00;99.90;;;;;;5037612;28;20375;-63
2023/06/27 04:39:10;;;;;;;8.95;2.55;;;15.00;99.90;;;;;;5052317;28;20037;-63
2023/06/27 04:41:36;;;;;;;6.10;2.42;;;15.10;99.90;;;;;;5074290;28;20039;-63
2023/06/27 04:44:02;;;;;;;8.02;2.40;;;15.10;99.90;;;;;;5057381;28;20051;-63
2023/06/27 04:46:28;;;;;;;7.47;2.80;;;15.20;99.90;;;;;;5074859;28;20040;-63
2023/06/27 04:48:57;;;;;;;8.57;2.78;;;15.20;99.90;;;;;;5056847;28;20071;-63
2023/06/27 04:51:27;;;;;;;7.80;2.55;;;15.30;99.90;;;;;;5075215;28;20465;-63
2023/06/27 04:53:54;;;;;;;6.57;2.42;;;15.40;99.90;;;;;;5075164;28;20497;-63
2023/06/27 04:56:20;;;;;;;7.32;2.45;;;15.50;99.90;;;;;;5056532;28;20055;-63
2023/06/27 04:58:45;;;;;;;6.55;2.55;;;15.60;99.90;;;;;;5057093;28;20044;-63
2023/06/27 05:01:11;;;;;;;7.82;2.80;;;15.60;99.90;;;;;;5074342;28;20032;-63
2023/06/27 05:03:37;;;;;;;8.85;2.80;;;15.80;99.90;;;;;;5075225;28;20462;-63
2023/06/27 05:06:06;;;;;;;5.57;2.67;;;15.80;99.90;;;;;;5032998;28;20044;-63
2023/06/27 05:08:33;;;;;;;7.28;2.88;;;16.00;99.90;;;;;;5051776;28;20033;-63
2023/06/27 05:10:58;;;;;;;7.47;2.58;;;16.10;99.90;;;;;;5040985;28;20481;-63
2023/06/27 05:13:24;;;;;;;6.45;2.75;;;16.30;99.90;;;;;;5064177;28;20093;-63
2023/06/27 05:15:50;;;;;;;8.50;2.58;;;16.40;99.90;;;;;;5073834;28;20158;-63
2023/06/27 05:18:15;;;;;;;5.93;2.30;;;16.60;99.90;;;;;;5056753;28;20047;-63
2023/06/27 05:20:41;;;;;;;5.82;1.80;;;16.70;99.90;;;;;;5051107;28;20048;-63
2023/06/27 05:23:07;;;;;;;5.45;2.53;;;16.90;99.90;;;;;;5057831;28;20054;-63
2023/06/27 05:25:33;;;;;;;8.00;2.40;;;17.00;99.90;;;;;;5054262;28;20048;-63
2023/06/27 05:27:59;;;;;;;5.82;2.10;;;17.20;99.90;;;;;;5073254;28;20044;-63
2023/06/27 05:30:26;;;;;;;5.28;2.10;;;17.30;99.90;;;;;;5053871;28;20416;-63
2023/06/27 05:32:52;;;;;;;7.22;2.15;;;17.40;99.90;;;;;;5066984;28;20040;-63
2023/06/27 05:35:17;;;;;;;6.40;1.92;;;17.60;99.90;;;;;;5064915;28;20539;-63
2023/06/27 05:37:43;;;;;;;12.40;2.33;;;17.70;99.90;;;;;;5036347;28;20080;-63
2023/06/27 05:40:09;;;;;;;4.60;1.73;;;17.80;99.90;;;;;;5052474;28;20083;-64
2023/06/27 05:42:39;;;;;;;5.88;1.80;;;17.90;99.90;;;;;;5055153;28;20464;-63
2023/06/27 05:45:05;;;;;;;5.15;1.67;;;18.00;99.90;;;;;;5037991;28;20033;-64
2023/06/27 05:47:31;;;;;;;10.27;1.88;;;18.10;99.90;;;;;;5055638;28;20048;-63
2023/06/27 05:49:56;;;;;;;5.32;1.60;;;18.20;99.90;;;;;;5061444;28;20066;-63
2023/06/27 05:52:22;;;;;;;5.90;1.92;;;18.30;99.90;;;;;;5048360;28;20500;-63
2023/06/27 05:54:49;;;;;;;6.32;1.85;;;18.40;99.90;;;;;;5035550;28;20055;-63
2023/06/27 05:57:14;;;;;;;6.63;1.92;;;18.50;99.90;;;;;;5035277;28;20486;-63
2023/06/27 05:59:40;;;;;;;3.95;1.73;;;18.50;99.90;;;;;;5053342;28;20086;-63
2023/06/27 06:02:06;;;;;;;7.60;2.17;;;18.60;99.90;;;;;;5072115;28;20060;-64
2023/06/27 06:04:32;;;;;;;7.30;2.35;;;18.70;99.90;;;;;;5087098;28;20523;-63
2023/06/27 06:07:00;;;;;;;8.15;1.88;;;18.80;99.90;;;;;;5035421;28;20045;-64
2023/06/27 06:09:26;;;;;;;6.70;2.10;;;18.90;99.90;;;;;;5050623;28;20036;-65
2023/06/27 06:11:52;;;;;;;5.22;1.70;;;19.00;99.90;;;;;;5046426;28;20083;-64
2023/06/27 06:14:18;;;;;;;7.30;1.83;;;19.00;99.90;;;;;;5033142;28;20431;-64
2023/06/27 06:16:43;;;;;;;6.68;1.77;;;19.10;99.90;;;;;;5073111;28;20448;-64
2023/06/27 06:19:11;;;;;;;7.13;1.77;;;19.00;99.90;;;;;;5066240;28;20449;-65
2023/06/27 06:21:37;;;;;;;7.30;1.73;;;19.10;99.90;;;;;;5074774;28;20431;-64
2023/06/27 06:24:03;;;;;;;7.82;2.00;;;19.20;99.90;;;;;;5057505;28;20099;-64
2023/06/27 06:26:29;;;;;;;6.85;2.00;;;19.30;99.90;;;;;;5038147;28;20080;-65
2023/06/27 06:28:54;;;;;;;6.32;1.58;;;19.30;99.90;;;;;;5034439;28;20091;-64
2023/06/27 06:31:21;;;;;;;7.00;1.70;;;19.40;99.90;;;;;;5039924;28;20056;-65
2023/06/27 06:33:48;;;;;;;8.43;2.22;;;19.40;99.90;;;;;;5038807;28;20404;-66
2023/06/27 06:36:14;;;;;;;5.03;1.40;;;19.50;99.90;;;;;;5069719;28;20048;-66
2023/06/27 06:38:41;;;;;;;5.50;1.63;;;19.60;99.90;;;;;;5048021;28;20048;-66
2023/06/27 06:41:07;;;;;;;9.30;1.92;;;19.70;99.90;;;;;;5065703;28;20045;-66
2023/06/27 06:43:33;;;;;;;5.22;1.80;;;19.80;99.90;;;;;;5051573;28;20048;-67
2023/06/27 06:45:59;;;;;;;5.43;1.40;;;19.80;99.90;;;;;;5069652;28;20509;-66
2023/06/27 06:48:26;;;;;;;5.93;1.60;;;19.90;99.90;;;;;;5066654;28;20044;-66
2023/06/27 06:50:52;;;;;;;5.30;1.60;;;19.90;99.90;;;;;;5059595;28;20502;-66
2023/06/27 06:53:26;;;;;;;4.75;1.52;;;19.80;99.90;;;;;;5052148;28;20142;-66
2023/06/27 06:55:52;;;;;;;6.30;1.73;;;19.90;99.90;;;;;;5053036;28;20494;-66
2023/06/27 06:58:21;;;;;;;4.57;1.30;;;19.90;99.90;;;;;;5049754;28;20049;-68
2023/06/27 07:00:47;;;;;;;5.95;2.50;;;19.90;99.90;;;;;;5030659;28;20049;-66
2023/06/27 07:03:14;;;;;;;6.25;1.80;;;19.90;99.90;;;;;;5049984;28;20049;-66
2023/06/27 07:05:43;;;;;;;6.68;1.55;;;19.80;99.90;;;;;;5065243;28;20070;-66
2023/06/27 07:08:09;;;;;;;6.95;1.88;;;19.80;99.90;;;;;;5030905;28;20041;-66
2023/06/27 07:10:35;;;;;;;6.97;1.95;;;19.90;99.90;;;;;;5039977;28;20451;-66
2023/06/27 07:13:01;;;;;;;6.32;1.55;;;20.00;99.90;;;;;;5040947;28;20421;-66
2023/06/27 07:15:28;;;;;;;8.00;2.03;;;20.10;99.90;;;;;;5038389;28;20049;-65
2023/06/27 07:17:55;;;;;;;5.60;1.40;;;20.20;99.90;;;;;;5049344;28;20037;-65
2023/06/27 07:20:22;;;;;;;8.23;1.95;;;20.30;99.90;;;;;;5036132;28;20477;-65
2023/06/27 07:22:51;;;;;;;6.40;1.58;;;20.40;99.90;;;;;;5063594;28;20051;-65
2023/06/27 07:25:17;;;;;;;8.93;1.65;;;20.40;99.90;;;;;;5036905;28;20073;-65
2023/06/27 07:27:43;;;;;;;4.97;1.65;;;20.50;99.90;;;;;;5062020;28;20040;-65
2023/06/27 07:30:10;;;;;;;4.90;1.77;;;20.60;99.90;;;;;;5057363;28;20056;-65
2023/06/27 07:32:36;;;;;;;4.53;1.50;;;20.60;99.90;;;;;;5049637;28;20497;-65
2023/06/27 07:35:02;;;;;;;5.90;1.60;;;20.70;99.90;;;;;;5051113;28;20032;-65
2023/06/27 07:37:27;;;;;;;7.55;1.83;;;20.70;99.90;;;;;;5058338;28;20385;-65
2023/06/27 07:39:53;;;;;;;4.13;1.35;;;20.70;99.90;;;;;;5059905;28;20599;-65
2023/06/27 07:42:19;;;;;;;4.95;1.50;;;20.60;99.90;;;;;;5064001;28;20113;-65
2023/06/27 07:44:44;;;;;;;6.22;1.60;;;20.50;99.90;;;;;;5067022;28;20039;-65
2023/06/27 07:47:10;;;;;;;4.28;1.52;;;20.50;99.90;;;;;;5063483;28;20033;-65
2023/06/27 07:49:38;;;;;;;5.80;1.90;;;20.50;99.90;;;;;;5037056;28;20773;-65
2023/06/27 07:52:08;;;;;;;5.10;1.38;;;20.40;99.90;;;;;;5043450;28;20090;-65
2023/06/27 07:54:34;;;;;;;7.03;1.55;;;20.30;99.90;;;;;;5031699;28;20048;-65
2023/06/27 07:57:00;;;;;;;7.47;1.73;;;20.30;99.90;;;;;;5044203;28;20051;-65
2023/06/27 07:59:26;;;;;;;5.10;1.60;;;20.30;99.90;;;;;;5049071;28;20394;-65
2023/06/27 08:01:51;;;;;;;7.38;1.48;;;20.30;99.90;;;;;;5038537;28;20041;-65
2023/06/27 08:04:17;;;;;;;6.10;1.80;;;20.30;99.90;;;;;;5055563;28;20033;-65
2023/06/27 08:06:43;;;;;;;10.00;2.40;;;20.30;99.90;;;;;;5064248;28;20040;-65
2023/06/27 08:09:09;;;;;;;8.50;1.77;;;20.30;99.90;;;;;;5075587;28;20044;-65
2023/06/27 08:11:34;;;;;;;6.05;1.42;;;20.30;99.90;;;;;;5047631;28;20107;-65
2023/06/27 08:14:01;;;;;;;6.32;1.80;;;20.50;99.90;;;;;;5075474;28;20046;-65
2023/06/27 08:16:26;;;;;;;5.97;1.77;;;20.60;99.90;;;;;;5057129;28;20037;-64
2023/06/27 08:18:52;;;;;;;6.05;2.08;;;20.70;99.90;;;;;;5074689;28;20125;-65
2023/06/27 08:21:18;;;;;;;4.35;2.13;;;20.70;99.90;;;;;;5064163;28;20039;-63
2023/06/27 08:23:44;;;;;;;6.82;1.17;;;20.70;99.90;;;;;;5056043;28;20043;-63
2023/06/27 08:26:16;;;;;;;6.80;1.70;;;20.70;99.90;;;;;;5068743;28;20029;-63
2023/06/27 08:28:43;;;;;;;6.85;2.45;;;20.80;99.90;;;;;;5051688;28;20041;-63
2023/06/27 08:31:11;;;;;;;6.30;1.77;;;20.80;99.90;;;;;;5048553;28;20095;-66
2023/06/27 08:33:37;;;;;;;4.82;1.58;;;20.80;99.90;;;;;;5050207;28;20048;-66
2023/06/27 08:36:02;;;;;;;5.75;1.80;;;20.80;99.40;;;;;;5057356;28;20052;-66
2023/06/27 08:38:28;;;;;;;5.57;1.08;;;20.80;99.50;;;;;;5079862;28;20078;-66
2023/06/27 08:40:55;;;;;;;5.80;1.40;;;20.80;98.90;;;;;;5050026;28;20048;-65
2023/06/27 08:43:21;;;;;;;8.55;2.05;;;20.80;98.30;;;;;;5040692;28;20036;-65
2023/06/27 08:45:49;;;;;;;4.28;1.15;;;20.70;98.50;;;;;;5057261;28;20049;-66
2023/06/27 08:48:16;;;;;;;5.75;1.30;;;20.90;98.10;;;;;;5066228;28;20404;-66
2023/06/27 08:50:43;;;;;;;6.85;1.90;;;20.90;97.40;;;;;;5054933;28;20044;-65
2023/06/27 08:53:14;;;;;;;5.63;1.42;;;20.80;96.80;;;;;;5075266;28;20041;-66
2023/06/27 08:55:55;;;;;;;6.00;1.58;;;20.80;96.50;;;;;;5039316;28;20054;-66
2023/06/27 08:58:25;;;;;;;4.35;1.30;;;20.80;95.90;;;;;;5025471;28;20127;-66
2023/06/27 09:00:53;;;;;;;5.57;1.50;;;20.90;96.30;;;;;;5067976;28;20135;-65
2023/06/27 09:03:20;;;;;;;3.88;1.27;;;20.90;96.10;;;;;;5038987;28;20039;-66
2023/06/27 09:05:47;;;;;;;4.25;1.30;;;20.80;96.00;;;;;;5070683;28;20148;-66
2023/06/27 09:08:13;;;;;;;5.18;1.50;;;20.90;96.40;;;;;;5053711;28;20060;-65
2023/06/27 09:10:40;;;;;;;5.97;1.40;;;20.90;96.50;;;;;;5047480;28;20082;-66
2023/06/27 09:13:06;;;;;;;6.15;1.58;;;20.90;97.00;;;;;;5087695;28;20044;-66
2023/06/27 09:15:32;;;;;;;5.55;1.58;;;21.00;97.60;;;;;;5065757;28;20041;-66
2023/06/27 09:17:58;;;;;;;4.70;1.63;;;21.00;97.30;;;;;;5072237;28;20041;-66
2023/06/27 09:20:24;;;;;;;6.88;1.58;;;21.10;96.80;;;;;;5054086;28;20048;-66
2023/06/27 09:22:51;;;;;;;6.03;1.40;;;21.00;97.20;;;;;;5035786;28;20562;-67
2023/06/27 09:25:21;;;;;;;5.90;1.40;;;21.00;97.00;;;;;;5032554;28;20082;-66
2023/06/27 09:27:47;;;;;;;5.25;1.80;;;21.00;96.50;;;;;;5039807;28;20388;-65
2023/06/27 09:30:13;;;;;;;8.27;1.70;;;20.90;96.50;;;;;;5039325;28;20540;-65
2023/06/27 09:32:55;;;;;;;5.07;1.50;;;20.90;96.60;;;;;;5074646;28;20131;-66
2023/06/27 09:35:21;;;;;;;2.92;1.20;;;21.00;97.30;;;;;;5056125;28;20045;-65
2023/06/27 09:37:47;;;;;;;6.47;1.75;;;21.10;97.10;;;;;;5056829;28;20086;-65
2023/06/27 09:40:19;;;;;;;7.65;1.60;;;21.10;96.60;;;;;;5058324;28;20048;-65
2023/06/27 09:42:51;;;;;;;5.60;1.88;;;21.00;96.20;;;;;;5044875;28;20520;-65
2023/06/27 09:45:18;;;;;;;5.43;1.45;;;20.90;96.30;;;;;;5048204;28;20090;-65
2023/06/27 09:47:44;;;;;;;4.32;1.23;;;20.90;96.60;;;;;;5055370;28;20051;-65
2023/06/27 09:50:10;;;;;;;5.53;1.60;;;20.90;97.20;;;;;;5072437;28;20127;-67
2023/06/27 09:55:59;;;;;;;6.78;1.52;;;20.80;97.50;;;;;;5053940;28;20128;-63
2023/06/27 09:58:29;;;;;;;5.88;1.83;;;20.80;97.50;;;;;;5053239;28;20041;-63
2023/06/27 10:01:04;;;;;;;6.80;1.80;;;20.90;97.60;;;;;;5053851;28;20056;-63
2023/06/27 10:03:29;;;;;;;;;;;20.80;97.50;;;;;;5035318;28;20120;-63
2023/06/27 10:05:55;;;;;;;4.18;1.45;;;20.90;97.90;;;;;;5036107;28;20003;-63
2023/06/27 10:08:21;;;;;;;6.70;1.73;;;20.90;97.70;;;;;;5036143;28;20041;-63
2023/06/27 10:10:47;;;;;;;9.10;1.85;;;20.90;98.00;;;;;;5053131;28;20052;-64
2023/06/27 10:13:13;;;;;;;6.43;1.58;;;20.90;97.40;;;;;;5035978;28;20167;-64
2023/06/27 10:15:39;;;;;;;4.50;1.50;;;20.90;97.00;;;;;;5053960;28;20080;-63
2023/06/27 10:18:05;;;;;;;6.85;1.45;;;20.90;96.60;;;;;;5053026;28;20414;-64
2023/06/27 10:20:30;;;;;;;6.68;1.65;;;20.90;97.30;;;;;;5053341;28;20041;-63
2023/06/27 10:22:57;;;;;;;6.47;1.52;;;21.00;97.10;;;;;;5035723;28;20082;-63
2023/06/27 10:25:23;;;;;;;5.15;1.60;;;21.20;97.00;;;;;;5035010;28;20036;-64
2023/06/27 10:27:49;;;;;;;6.65;1.70;;;21.20;95.70;;;;;;5035404;28;20489;-63
2023/06/27 10:30:17;;;;;;;5.40;1.20;;;21.20;95.10;;;;;;5035146;28;20472;-63
2023/06/27 10:32:43;;;;;;;5.07;1.50;;;21.20;94.90;;;;;;5052561;28;20477;-64
2023/06/27 10:35:26;;;;;;;6.32;1.55;;;21.30;94.30;;;;;;5053737;28;20450;-63
2023/06/27 10:38:09;;;;;;;7.63;1.60;;;21.20;94.20;;;;;;5035437;28;20080;-64
2023/06/27 10:40:58;;;;;;;4.50;1.17;;;21.10;94.90;;;;;;5052612;28;20390;-64
2023/06/27 10:43:45;;;;;;;6.03;1.60;;;21.10;95.80;;;;;;5053348;28;20145;-63
2023/06/27 10:46:26;;;;;;;7.75;1.63;;;21.30;95.90;;;;;;5035090;28;20059;-64
2023/06/27 10:49:01;;;;;;;6.10;1.40;;;21.50;95.40;;;;;;5019415;28;20029;-64
2023/06/27 10:51:41;;;;;;;7.72;1.83;;;21.60;95.00;;;;;;5052861;28;20385;-64
2023/06/27 10:54:07;;;;;;;7.13;1.60;;;21.80;95.10;;;;;;5052800;28;20374;-64
2023/06/27 10:56:56;;;;;;;3.75;1.30;;;21.90;94.50;;;;;;5035009;28;20078;-64
2023/06/27 10:59:23;;;;;;;3.65;1.40;;;21.90;94.10;;;;;;5052937;28;20045;-63
2023/06/27 11:02:02;;;;;;;8.48;2.10;;;21.60;94.20;;;;;;5051784;28;20458;-63
2023/06/27 11:04:42;;;;;;;8.18;1.30;;;21.40;95.60;;;;;;5035019;28;20041;-63
2023/06/27 11:07:10;;;;;;;7.00;1.92;;;21.20;96.50;;;;;;5052455;28;20448;-64
2023/06/27 11:09:37;;;;;;;8.00;2.22;;;21.10;96.60;;;;;;5034773;28;20086;-63
2023/06/27 11:12:11;;;;;;;7.55;1.77;;;21.30;96.60;;;;;;5018408;28;20041;-64
2023/06/27 11:14:44;;;;;;;5.80;1.50;;;21.30;96.30;;;;;;5051949;28;20087;-63
2023/06/27 11:17:11;;;;;;;6.85;1.63;;;21.30;96.50;;;;;;5018515;28;20053;-63
2023/06/27 11:19:38;;;;;;;6.25;1.55;;;21.30;96.50;;;;;;5052618;28;20071;-63
2023/06/27 11:22:06;;;;;;;6.80;1.35;;;21.40;96.40;;;;;;5034093;28;20115;-63
2023/06/27 11:24:32;;;;;;;8.10;1.88;;;21.60;95.50;;;;;;5034371;28;20090;-63
2023/06/27 11:27:07;;;;;;;7.05;1.42;;;21.60;95.00;;;;;;5034537;28;20041;-64
2023/06/27 11:29:33;;;;;;;6.20;1.70;;;21.60;94.90;;;;;;5033856;28;20072;-63
2023/06/27 11:32:00;;;;;;;5.53;1.75;;;21.60;94.60;;;;;;5034178;28;20084;-64
2023/06/27 11:34:27;;;;;;;5.32;1.63;;;21.70;94.60;;;;;;5034781;28;20094;-64
2023/06/27 11:36:54;;;;;;;7.88;1.83;;;21.80;94.20;;;;;;5033866;28;20052;-63
2023/06/27 11:39:20;;;;;;;5.25;1.73;;;21.80;94.30;;;;;;5052011;28;20047;-63
2023/06/27 11:41:46;;;;;;;7.82;1.80;;;21.70;93.70;;;;;;5051578;28;20072;-64
2023/06/27 11:44:16;;;;;;;6.55;2.00;;;21.60;93.30;;;;;;5034094;28;20467;-63
2023/06/27 11:46:53;;;;;;;8.00;1.40;;;21.50;93.10;;;;;;5034120;28;20041;-64
2023/06/27 11:49:22;;;;;;;6.18;1.83;;;21.50;92.90;;;;;;5051245;28;20037;-63
2023/06/27 11:51:48;;;;;;;6.50;1.50;;;21.50;92.90;;;;;;5034103;28;20041;-63
2023/06/27 11:54:18;;;;;;;6.78;1.75;;;21.50;93.30;;;;;;5052027;28;20371;-64
2023/06/27 11:56:44;;;;;;;5.30;1.75;;;21.60;92.90;;;;;;5033257;28;20041;-64
2023/06/27 11:59:10;;;;;;;6.68;1.70;;;21.60;92.60;;;;;;5017886;28;20051;-63
2023/06/27 12:01:40;;;;;;;5.22;1.27;;;21.60;91.60;;;;;;5033951;28;20049;-63
2023/06/27 12:04:16;;;;;;;4.65;1.73;;;21.70;91.80;;;;;;5033558;28;20051;-64
2023/06/27 12:06:43;;;;;;;5.03;1.45;;;21.90;91.90;;;;;;5034029;28;20041;-63
2023/06/27 12:09:24;;;;;;;5.80;1.55;;;21.90;91.60;;;;;;5034584;28;20477;-63
2023/06/27 12:11:56;;;;;;;5.47;1.20;;;22.00;92.00;;;;;;5051078;28;20036;-63
2023/06/27 12:14:23;;;;;;;6.85;1.50;;;22.00;92.40;;;;;;5051899;28;20124;-63
2023/06/27 12:16:48;;;;;;;6.90;1.52;;;21.90;91.60;;;;;;5051597;28;20041;-63
2023/06/27 12:19:18;;;;;;;5.28;1.30;;;21.90;91.00;;;;;;5033442;28;20375;-63
2023/06/27 12:21:44;;;;;;;5.85;1.92;;;21.90;91.30;;;;;;5033984;28;20052;-63
2023/06/27 12:24:10;;;;;;;7.53;1.63;;;21.90;90.70;;;;;;5033388;28;20119;-63
2023/06/27 12:26:36;;;;;;;7.47;2.08;;;21.90;91.10;;;;;;5051631;28;20116;-63
2023/06/27 12:29:06;;;;;;;4.43;1.50;;;21.80;91.90;;;;;;5051461;28;20407;-63
2023/06/27 12:31:35;;;;;;;5.60;1.30;;;21.80;91.70;;;;;;5050801;28;20060;-63
2023/06/27 12:34:01;;;;;;;6.35;1.58;;;21.70;91.70;;;;;;5033970;28;20083;-64
2023/06/27 12:36:27;;;;;;;6.32;1.70;;;21.80;91.90;;;;;;5017230;28;20502;-63
2023/06/27 12:38:56;;;;;;;7.28;3.08;;;21.90;92.10;;;;;;5051021;28;20249;-64
2023/06/27 12:41:24;;;;;;;4.43;1.70;;;21.80;92.40;;;;;;5033578;28;20041;-63
2023/06/27 12:43:50;;;;;;;6.93;1.98;;;21.70;92.30;;;;;;5051356;28;20036;-63
2023/06/27 12:46:15;;;;;;;5.43;1.63;;;21.60;92.00;;;;;;5050890;28;20044;-64
2023/06/27 12:48:43;;;;;;;7.93;1.77;;;21.60;91.80;;;;;;5033662;28;20044;-64
2023/06/27 12:51:09;;;;;;;7.30;1.85;;;21.60;91.90;;;;;;5051766;28;20452;-64